Masset, Canada
Current Conditions -  °F | °C
As of 11:00 AM on Sunday 23 Nov 2014 (Local Time) from CZMT Reporting Station
Broken Clouds Broken Clouds  
Wind Chill:   Ceiling: 21000
Heat Index:   Visibility: 15mi
Dew Point:   Wind: 2mph
Humidity: 87%   Direction: 180°S
Pressure: 29.84"   Gusts: NA
Location:  54.02°N, 132.15°W
Report Text: CZMT 231900Z 18002KT 15SM FEW015CB BKN210 07/05 A2984 RMK CB2CI5 SLP106
Loading
Personal Weather Stations






























Interactive Weather Map New forecast layout! Learn more

10-Day Weather Forecast

Advertisements
Track Severe Weather on mobile